sensor_id;sensor_type;location;lat;lon;timestamp;temperature;humidity
8420;DHT22;4247;48.550;8.822;2023-02-15T00:01:34;1.40;99.90
8420;DHT22;4247;48.550;8.822;2023-02-15T00:04:01;1.30;99.90
8420;DHT22;4247;48.550;8.822;2023-02-15T00:06:28;1.40;99.90
8420;DHT22;4247;48.550;8.822;2023-02-15T00:08:56;1.30;99.90
8420;DHT22;4247;48.550;8.822;2023-02-15T00:11:23;1.30;99.90
8420;DHT22;4247;48.550;8.822;2023-02-15T00:14:06;1.20;99.90
8420;DHT22;4247;48.550;8.822;2023-02-15T00:16:34;1.20;99.90
8420;DHT22;4247;48.550;8.822;2023-02-15T00:19:01;1.10;99.90
8420;DHT22;4247;48.550;8.822;2023-02-15T00:21:28;1.10;99.90
8420;DHT22;4247;48.550;8.822;2023-02-15T00:24:00;1.10;99.90
8420;DHT22;4247;48.550;8.822;2023-02-15T00:26:27;1.00;99.90
8420;DHT22;4247;48.550;8.822;2023-02-15T00:28:55;1.00;99.90
8420;DHT22;4247;48.550;8.822;2023-02-15T00:31:26;1.00;99.90
8420;DHT22;4247;48.550;8.822;2023-02-15T00:33:53;1.00;99.90
8420;DHT22;4247;48.550;8.822;2023-02-15T00:36:20;0.90;99.90
8420;DHT22;4247;48.550;8.822;2023-02-15T00:38:47;0.90;99.90
8420;DHT22;4247;48.550;8.822;2023-02-15T00:41:14;0.90;99.90
8420;DHT22;4247;48.550;8.822;2023-02-15T00:43:41;0.90;99.90
8420;DHT22;4247;48.550;8.822;2023-02-15T00:46:08;0.80;99.90
8420;DHT22;4247;48.550;8.822;2023-02-15T00:48:39;0.80;99.90
8420;DHT22;4247;48.550;8.822;2023-02-15T00:51:06;0.80;99.90
8420;DHT22;4247;48.550;8.822;2023-02-15T00:53:33;0.80;99.90
8420;DHT22;4247;48.550;8.822;2023-02-15T00:56:00;0.70;99.90
8420;DHT22;4247;48.550;8.822;2023-02-15T00:58:27;0.70;99.90
8420;DHT22;4247;48.550;8.822;2023-02-15T01:01:06;0.60;99.90
8420;DHT22;4247;48.550;8.822;2023-02-15T01:03:36;0.60;99.90
8420;DHT22;4247;48.550;8.822;2023-02-15T01:06:04;0.60;99.90
8420;DHT22;4247;48.550;8.822;2023-02-15T01:08:31;0.50;99.90
8420;DHT22;4247;48.550;8.822;2023-02-15T01:11:04;0.40;99.90
8420;DHT22;4247;48.550;8.822;2023-02-15T01:13:31;0.50;99.90
8420;DHT22;4247;48.550;8.822;2023-02-15T01:15:58;0.40;99.90
8420;DHT22;4247;48.550;8.822;2023-02-15T01:18:25;0.50;99.90
8420;DHT22;4247;48.550;8.822;2023-02-15T01:20:58;0.40;99.90
8420;DHT22;4247;48.550;8.822;2023-02-15T01:23:29;0.30;99.90
8420;DHT22;4247;48.550;8.822;2023-02-15T01:26:01;0.40;99.90
8420;DHT22;4247;48.550;8.822;2023-02-15T01:28:28;0.40;99.90
8420;DHT22;4247;48.550;8.822;2023-02-15T01:30:55;0.40;99.90
8420;DHT22;4247;48.550;8.822;2023-02-15T01:33:22;0.40;99.90
8420;DHT22;4247;48.550;8.822;2023-02-15T01:35:58;0.40;99.90
8420;DHT22;4247;48.550;8.822;2023-02-15T01:38:30;0.30;99.90
8420;DHT22;4247;48.550;8.822;2023-02-15T01:40:57;0.30;99.90
8420;DHT22;4247;48.550;8.822;2023-02-15T01:43:46;0.30;99.90
8420;DHT22;4247;48.550;8.822;2023-02-15T01:46:16;0.30;99.90
8420;DHT22;4247;48.550;8.822;2023-02-15T01:48:46;0.20;99.90
8420;DHT22;4247;48.550;8.822;2023-02-15T01:51:16;0.30;99.90
8420;DHT22;4247;48.550;8.822;2023-02-15T01:53:50;0.30;99.90
8420;DHT22;4247;48.550;8.822;2023-02-15T01:56:20;0.20;99.90
8420;DHT22;4247;48.550;8.822;2023-02-15T01:58:51;0.30;99.90
8420;DHT22;4247;48.550;8.822;2023-02-15T02:01:21;0.30;99.90
8420;DHT22;4247;48.550;8.822;2023-02-15T02:03:57;0.20;99.90
8420;DHT22;4247;48.550;8.822;2023-02-15T02:06:26;0.20;99.90
8420;DHT22;4247;48.550;8.822;2023-02-15T02:08:54;0.20;99.90
8420;DHT22;4247;48.550;8.822;2023-02-15T02:11:22;0.20;99.90
8420;DHT22;4247;48.550;8.822;2023-02-15T02:13:50;0.20;99.90
8420;DHT22;4247;48.550;8.822;2023-02-15T02:16:22;0.10;99.90
8420;DHT22;4247;48.550;8.822;2023-02-15T02:19:07;0.10;99.90
8420;DHT22;4247;48.550;8.822;2023-02-15T02:22:18;0.10;99.90
8420;DHT22;4247;48.550;8.822;2023-02-15T02:25:07;0.10;99.90
8420;DHT22;4247;48.550;8.822;2023-02-15T02:27:41;0.00;99.90
8420;DHT22;4247;48.550;8.822;2023-02-15T02:30:34;0.00;99.90
8420;DHT22;4247;48.550;8.822;2023-02-15T02:33:32;0.00;99.90
8420;DHT22;4247;48.550;8.822;2023-02-15T02:36:08;-0.10;99.90
8420;DHT22;4247;48.550;8.822;2023-02-15T02:38:52;-0.20;99.90
8420;DHT22;4247;48.550;8.822;2023-02-15T02:41:28;-0.10;99.90
8420;DHT22;4247;48.550;8.822;2023-02-15T02:44:04;-0.20;99.90
8420;DHT22;4247;48.550;8.822;2023-02-15T02:46:38;-0.10;99.90
8420;DHT22;4247;48.550;8.822;2023-02-15T02:49:09;-0.20;99.90
8420;DHT22;4247;48.550;8.822;2023-02-15T02:51:36;-0.20;99.90
8420;DHT22;4247;48.550;8.822;2023-02-15T02:54:06;-0.20;99.90
8420;DHT22;4247;48.550;8.822;2023-02-15T02:56:40;-0.20;99.90
8420;DHT22;4247;48.550;8.822;2023-02-15T02:59:15;-0.20;99.90
8420;DHT22;4247;48.550;8.822;2023-02-15T03:01:51;-0.20;99.90
8420;DHT22;4247;48.550;8.822;2023-02-15T03:04:24;-0.30;99.90
8420;DHT22;4247;48.550;8.822;2023-02-15T03:06:56;-0.30;99.90
8420;DHT22;4247;48.550;8.822;2023-02-15T03:09:29;-0.30;99.90
8420;DHT22;4247;48.550;8.822;2023-02-15T03:12:00;-0.30;99.90
8420;DHT22;4247;48.550;8.822;2023-02-15T03:14:31;-0.40;99.90
8420;DHT22;4247;48.550;8.822;2023-02-15T03:16:58;-0.40;99.90
8420;DHT22;4247;48.550;8.822;2023-02-15T03:19:32;-0.40;99.90
8420;DHT22;4247;48.550;8.822;2023-02-15T03:22:05;-0.40;99.90
8420;DHT22;4247;48.550;8.822;2023-02-15T03:24:36;-0.50;99.90
8420;DHT22;4247;48.550;8.822;2023-02-15T03:27:10;-0.50;99.90
8420;DHT22;4247;48.550;8.822;2023-02-15T03:29:40;-0.50;99.90
8420;DHT22;4247;48.550;8.822;2023-02-15T03:32:10;-0.50;99.90
8420;DHT22;4247;48.550;8.822;2023-02-15T03:34:39;-0.60;99.90
8420;DHT22;4247;48.550;8.822;2023-02-15T03:37:11;-0.50;99.90
8420;DHT22;4247;48.550;8.822;2023-02-15T03:39:44;-0.60;99.90
8420;DHT22;4247;48.550;8.822;2023-02-15T03:42:14;-0.60;99.90
8420;DHT22;4247;48.550;8.822;2023-02-15T03:44:50;-0.60;99.90
8420;DHT22;4247;48.550;8.822;2023-02-15T03:47:21;-0.60;99.90
8420;DHT22;4247;48.550;8.822;2023-02-15T03:49:54;-0.70;99.90
8420;DHT22;4247;48.550;8.822;2023-02-15T03:52:25;-0.60;99.90
8420;DHT22;4247;48.550;8.822;2023-02-15T03:54:53;-0.60;99.90
8420;DHT22;4247;48.550;8.822;2023-02-15T03:57:22;-0.70;99.90
8420;DHT22;4247;48.550;8.822;2023-02-15T04:00:12;-0.70;99.90
8420;DHT22;4247;48.550;8.822;2023-02-15T04:03:07;-0.70;99.90
8420;DHT22;4247;48.550;8.822;2023-02-15T04:05:37;-0.70;99.90
8420;DHT22;4247;48.550;8.822;2023-02-15T04:08:05;-0.70;99.90
8420;DHT22;4247;48.550;8.822;2023-02-15T04:10:32;-0.80;99.90
8420;DHT22;4247;48.550;8.822;2023-02-15T04:13:16;-0.80;99.90
8420;DHT22;4247;48.550;8.822;2023-02-15T04:15:43;-0.80;99.90
8420;DHT22;4247;48.550;8.822;2023-02-15T04:18:27;-0.80;99.90
8420;DHT22;4247;48.550;8.822;2023-02-15T04:21:16;-0.80;99.90
8420;DHT22;4247;48.550;8.822;2023-02-15T04:24:00;-0.80;99.90
8420;DHT22;4247;48.550;8.822;2023-02-15T04:26:44;-0.80;99.90
8420;DHT22;4247;48.550;8.822;2023-02-15T04:29:13;-0.80;99.90
8420;DHT22;4247;48.550;8.822;2023-02-15T04:31:40;-0.90;99.90
8420;DHT22;4247;48.550;8.822;2023-02-15T04:34:08;-0.90;99.90
8420;DHT22;4247;48.550;8.822;2023-02-15T04:36:37;-0.90;99.90
8420;DHT22;4247;48.550;8.822;2023-02-15T04:39:04;-0.90;99.90
8420;DHT22;4247;48.550;8.822;2023-02-15T04:41:31;-1.00;99.90
8420;DHT22;4247;48.550;8.822;2023-02-15T04:43:59;-0.90;99.90
8420;DHT22;4247;48.550;8.822;2023-02-15T04:46:26;-0.90;99.90
8420;DHT22;4247;48.550;8.822;2023-02-15T04:48:54;-0.90;99.90
8420;DHT22;4247;48.550;8.822;2023-02-15T04:51:23;-0.90;99.90
8420;DHT22;4247;48.550;8.822;2023-02-15T04:53:52;-0.90;99.90
8420;DHT22;4247;48.550;8.822;2023-02-15T04:56:22;-1.00;99.90
8420;DHT22;4247;48.550;8.822;2023-02-15T04:58:49;-1.00;99.90
8420;DHT22;4247;48.550;8.822;2023-02-15T05:01:17;-1.00;99.90
8420;DHT22;4247;48.550;8.822;2023-02-15T05:03:44;-1.00;99.90
8420;DHT22;4247;48.550;8.822;2023-02-15T05:06:11;-1.10;99.90
8420;DHT22;4247;48.550;8.822;2023-02-15T05:08:38;-1.00;99.90
8420;DHT22;4247;48.550;8.822;2023-02-15T05:11:07;-1.00;99.90
8420;DHT22;4247;48.550;8.822;2023-02-15T05:13:37;-1.00;99.90
8420;DHT22;4247;48.550;8.822;2023-02-15T05:16:04;-1.10;99.90
8420;DHT22;4247;48.550;8.822;2023-02-15T05:18:31;-1.10;99.90
8420;DHT22;4247;48.550;8.822;2023-02-15T05:21:05;-1.10;99.90
8420;DHT22;4247;48.550;8.822;2023-02-15T05:23:34;-1.10;99.90
8420;DHT22;4247;48.550;8.822;2023-02-15T05:26:04;-1.10;99.90
8420;DHT22;4247;48.550;8.822;2023-02-15T05:28:49;-1.10;99.90
8420;DHT22;4247;48.550;8.822;2023-02-15T05:31:18;-1.10;99.90
8420;DHT22;4247;48.550;8.822;2023-02-15T05:33:46;-1.10;99.90
8420;DHT22;4247;48.550;8.822;2023-02-15T05:36:14;-1.10;99.90
8420;DHT22;4247;48.550;8.822;2023-02-15T05:38:41;-1.10;99.90
8420;DHT22;4247;48.550;8.822;2023-02-15T05:41:09;-1.10;99.90
8420;DHT22;4247;48.550;8.822;2023-02-15T05:43:40;-1.10;99.90
8420;DHT22;4247;48.550;8.822;2023-02-15T05:46:08;-1.10;99.90
8420;DHT22;4247;48.550;8.822;2023-02-15T05:48:39;-1.10;99.90
8420;DHT22;4247;48.550;8.822;2023-02-15T05:51:08;-1.20;99.90
8420;DHT22;4247;48.550;8.822;2023-02-15T05:53:37;-1.10;99.90
8420;DHT22;4247;48.550;8.822;2023-02-15T05:56:06;-1.20;99.90
8420;DHT22;4247;48.550;8.822;2023-02-15T05:58:35;-1.20;99.90
8420;DHT22;4247;48.550;8.822;2023-02-15T06:01:09;-1.20;99.90
8420;DHT22;4247;48.550;8.822;2023-02-15T06:03:38;-1.20;99.90
8420;DHT22;4247;48.550;8.822;2023-02-15T06:06:06;-1.20;99.90
8420;DHT22;4247;48.550;8.822;2023-02-15T06:08:34;-1.20;99.90
8420;DHT22;4247;48.550;8.822;2023-02-15T06:11:01;-1.20;99.90
8420;DHT22;4247;48.550;8.822;2023-02-15T06:13:29;-1.20;99.90
8420;DHT22;4247;48.550;8.822;2023-02-15T06:15:59;-1.20;99.90
8420;DHT22;4247;48.550;8.822;2023-02-15T06:18:27;-1.20;99.90
8420;DHT22;4247;48.550;8.822;2023-02-15T06:20:57;-1.30;99.90
8420;DHT22;4247;48.550;8.822;2023-02-15T06:23:24;-1.30;99.90
8420;DHT22;4247;48.550;8.822;2023-02-15T06:25:51;-1.30;99.90
8420;DHT22;4247;48.550;8.822;2023-02-15T06:28:18;-1.30;99.90
8420;DHT22;4247;48.550;8.822;2023-02-15T06:30:46;-1.30;99.90
8420;DHT22;4247;48.550;8.822;2023-02-15T06:33:15;-1.30;99.90
8420;DHT22;4247;48.550;8.822;2023-02-15T06:35:44;-1.40;99.90
8420;DHT22;4247;48.550;8.822;2023-02-15T06:38:11;-1.30;99.90
8420;DHT22;4247;48.550;8.822;2023-02-15T06:40:38;-1.30;99.90
8420;DHT22;4247;48.550;8.822;2023-02-15T06:43:05;-1.30;99.90
8420;DHT22;4247;48.550;8.822;2023-02-15T06:45:32;-1.30;99.90
8420;DHT22;4247;48.550;8.822;2023-02-15T06:47:59;-1.40;99.90
8420;DHT22;4247;48.550;8.822;2023-02-15T06:50:26;-1.30;99.90
8420;DHT22;4247;48.550;8.822;2023-02-15T06:52:57;-1.30;99.90
8420;DHT22;4247;48.550;8.822;2023-02-15T06:55:24;-1.30;99.90
8420;DHT22;4247;48.550;8.822;2023-02-15T06:57:52;-1.30;99.90
8420;DHT22;4247;48.550;8.822;2023-02-15T07:00:19;-1.30;99.90
8420;DHT22;4247;48.550;8.822;2023-02-15T07:02:52;-1.30;99.90
8420;DHT22;4247;48.550;8.822;2023-02-15T07:05:20;-1.30;99.90
8420;DHT22;4247;48.550;8.822;2023-02-15T07:07:48;-1.30;99.90
8420;DHT22;4247;48.550;8.822;2023-02-15T07:10:17;-1.20;99.90
8420;DHT22;4247;48.550;8.822;2023-02-15T07:12:48;-1.20;99.90
8420;DHT22;4247;48.550;8.822;2023-02-15T07:15:15;-1.20;99.90
8420;DHT22;4247;48.550;8.822;2023-02-15T07:17:43;-1.10;99.90
8420;DHT22;4247;48.550;8.822;2023-02-15T07:20:12;-1.10;99.90
8420;DHT22;4247;48.550;8.822;2023-02-15T07:22:43;-1.00;99.90
8420;DHT22;4247;48.550;8.822;2023-02-15T07:25:16;-1.00;99.90
8420;DHT22;4247;48.550;8.822;2023-02-15T07:27:43;-1.00;99.90
8420;DHT22;4247;48.550;8.822;2023-02-15T07:30:14;-0.90;99.90
8420;DHT22;4247;48.550;8.822;2023-02-15T07:32:41;-0.90;99.90
8420;DHT22;4247;48.550;8.822;2023-02-15T07:35:22;-0.80;99.90
8420;DHT22;4247;48.550;8.822;2023-02-15T07:37:52;-0.80;99.90
8420;DHT22;4247;48.550;8.822;2023-02-15T07:40:22;-0.70;99.90
8420;DHT22;4247;48.550;8.822;2023-02-15T07:42:49;-0.70;99.90
8420;DHT22;4247;48.550;8.822;2023-02-15T07:45:18;-0.70;99.90
8420;DHT22;4247;48.550;8.822;2023-02-15T07:47:45;-0.60;99.90
8420;DHT22;4247;48.550;8.822;2023-02-15T07:50:12;-0.50;99.90
8420;DHT22;4247;48.550;8.822;2023-02-15T07:52:39;-0.50;99.90
8420;DHT22;4247;48.550;8.822;2023-02-15T07:55:07;-0.50;99.90
8420;DHT22;4247;48.550;8.822;2023-02-15T07:57:41;-0.40;99.90
8420;DHT22;4247;48.550;8.822;2023-02-15T08:00:11;-0.40;99.90
8420;DHT22;4247;48.550;8.822;2023-02-15T08:02:38;-0.30;99.90
8420;DHT22;4247;48.550;8.822;2023-02-15T08:05:05;-0.30;99.90
8420;DHT22;4247;48.550;8.822;2023-02-15T08:07:33;-0.20;99.90
8420;DHT22;4247;48.550;8.822;2023-02-15T08:10:00;-0.20;99.90
8420;DHT22;4247;48.550;8.822;2023-02-15T08:12:27;-0.10;99.90
8420;DHT22;4247;48.550;8.822;2023-02-15T08:14:58;-0.10;99.90
8420;DHT22;4247;48.550;8.822;2023-02-15T08:17:26;0.00;99.90
8420;DHT22;4247;48.550;8.822;2023-02-15T08:19:53;0.10;99.90
8420;DHT22;4247;48.550;8.822;2023-02-15T08:22:20;0.10;99.90
8420;DHT22;4247;48.550;8.822;2023-02-15T08:24:47;0.20;99.90
8420;DHT22;4247;48.550;8.822;2023-02-15T08:27:16;0.20;99.90
8420;DHT22;4247;48.550;8.822;2023-02-15T08:29:46;0.20;99.90
8420;DHT22;4247;48.550;8.822;2023-02-15T08:32:17;0.30;99.90
8420;DHT22;4247;48.550;8.822;2023-02-15T08:34:44;0.30;99.90
8420;DHT22;4247;48.550;8.822;2023-02-15T08:37:11;0.30;99.90
8420;DHT22;4247;48.550;8.822;2023-02-15T08:39:38;0.40;99.90
8420;DHT22;4247;48.550;8.822;2023-02-15T08:42:08;0.50;99.90
8420;DHT22;4247;48.550;8.822;2023-02-15T08:44:36;0.60;99.90
8420;DHT22;4247;48.550;8.822;2023-02-15T08:47:03;0.60;99.90
8420;DHT22;4247;48.550;8.822;2023-02-15T08:49:31;0.70;99.90
8420;DHT22;4247;48.550;8.822;2023-02-15T08:51:59;0.80;99.90
8420;DHT22;4247;48.550;8.822;2023-02-15T08:54:29;0.80;99.90
8420;DHT22;4247;48.550;8.822;2023-02-15T08:56:56;0.90;99.90
8420;DHT22;4247;48.550;8.822;2023-02-15T08:59:24;1.00;99.90
8420;DHT22;4247;48.550;8.822;2023-02-15T09:01:53;1.00;99.90
8420;DHT22;4247;48.550;8.822;2023-02-15T09:04:21;1.10;99.90
8420;DHT22;4247;48.550;8.822;2023-02-15T09:06:50;1.20;99.90
8420;DHT22;4247;48.550;8.822;2023-02-15T09:09:21;1.30;99.90
8420;DHT22;4247;48.550;8.822;2023-02-15T09:11:50;1.30;99.90
8420;DHT22;4247;48.550;8.822;2023-02-15T09:14:20;1.40;99.90
8420;DHT22;4247;48.550;8.822;2023-02-15T09:16:51;1.40;99.90
8420;DHT22;4247;48.550;8.822;2023-02-15T09:19:20;1.50;99.90
8420;DHT22;4247;48.550;8.822;2023-02-15T09:21:48;1.60;99.90
8420;DHT22;4247;48.550;8.822;2023-02-15T09:24:17;1.80;99.90
8420;DHT22;4247;48.550;8.822;2023-02-15T09:26:46;1.80;99.90
8420;DHT22;4247;48.550;8.822;2023-02-15T09:29:15;1.90;99.90
8420;DHT22;4247;48.550;8.822;2023-02-15T09:31:47;1.90;99.90
8420;DHT22;4247;48.550;8.822;2023-02-15T09:34:16;2.00;99.90
8420;DHT22;4247;48.550;8.822;2023-02-15T09:36:45;2.10;99.90
8420;DHT22;4247;48.550;8.822;2023-02-15T09:39:16;2.10;99.90
8420;DHT22;4247;48.550;8.822;2023-02-15T09:44:57;2.30;99.90
8420;DHT22;4247;48.550;8.822;2023-02-15T09:48:01;2.30;99.90
8420;DHT22;4247;48.550;8.822;2023-02-15T09:50:35;2.40;99.90
8420;DHT22;4247;48.550;8.822;2023-02-15T09:53:23;2.50;99.90
8420;DHT22;4247;48.550;8.822;2023-02-15T09:56:00;2.60;99.90
8420;DHT22;4247;48.550;8.822;2023-02-15T09:58:37;2.60;99.90
8420;DHT22;4247;48.550;8.822;2023-02-15T10:01:13;2.70;99.90
8420;DHT22;4247;48.550;8.822;2023-02-15T10:03:53;2.80;99.90
8420;DHT22;4247;48.550;8.822;2023-02-15T10:06:31;2.90;99.90
8420;DHT22;4247;48.550;8.822;2023-02-15T10:12:41;3.10;99.90
8420;DHT22;4247;48.550;8.822;2023-02-15T10:15:19;3.20;99.90
8420;DHT22;4247;48.550;8.822;2023-02-15T10:18:09;3.20;99.90
8420;DHT22;4247;48.550;8.822;2023-02-15T10:20:49;3.30;99.90
8420;DHT22;4247;48.550;8.822;2023-02-15T10:23:30;3.40;99.90
8420;DHT22;4247;48.550;8.822;2023-02-15T10:26:07;3.50;99.90
8420;DHT22;4247;48.550;8.822;2023-02-15T10:28:42;3.60;99.90
8420;DHT22;4247;48.550;8.822;2023-02-15T10:31:17;3.60;99.90
8420;DHT22;4247;48.550;8.822;2023-02-15T10:34:02;3.80;99.90
8420;DHT22;4247;48.550;8.822;2023-02-15T10:39:27;3.90;99.90
8420;DHT22;4247;48.550;8.822;2023-02-15T10:42:06;4.00;99.90
8420;DHT22;4247;48.550;8.822;2023-02-15T10:44:47;4.00;99.90
8420;DHT22;4247;48.550;8.822;2023-02-15T10:47:33;4.10;99.90
8420;DHT22;4247;48.550;8.822;2023-02-15T10:50:17;4.10;99.90
8420;DHT22;4247;48.550;8.822;2023-02-15T10:52:58;4.20;99.90
8420;DHT22;4247;48.550;8.822;2023-02-15T10:55:43;4.30;99.90
8420;DHT22;4247;48.550;8.822;2023-02-15T10:58:19;4.30;99.90
8420;DHT22;4247;48.550;8.822;2023-02-15T11:04:32;4.50;99.90
8420;DHT22;4247;48.550;8.822;2023-02-15T11:07:07;4.60;99.90
8420;DHT22;4247;48.550;8.822;2023-02-15T11:09:42;4.60;99.90
8420;DHT22;4247;48.550;8.822;2023-02-15T11:12:14;4.70;99.90
8420;DHT22;4247;48.550;8.822;2023-02-15T11:14:50;4.80;99.90
8420;DHT22;4247;48.550;8.822;2023-02-15T11:17:22;4.90;99.90
8420;DHT22;4247;48.550;8.822;2023-02-15T11:19:56;4.90;99.90
8420;DHT22;4247;48.550;8.822;2023-02-15T11:22:28;4.90;99.90
8420;DHT22;4247;48.550;8.822;2023-02-15T11:24:58;5.00;99.90
8420;DHT22;4247;48.550;8.822;2023-02-15T11:27:28;5.10;99.90
8420;DHT22;4247;48.550;8.822;2023-02-15T11:29:59;5.10;99.90
8420;DHT22;4247;48.550;8.822;2023-02-15T11:32:30;5.10;99.90
8420;DHT22;4247;48.550;8.822;2023-02-15T11:35:05;5.10;99.90
8420;DHT22;4247;48.550;8.822;2023-02-15T11:37:40;5.20;99.90
8420;DHT22;4247;48.550;8.822;2023-02-15T11:40:17;5.30;99.90
8420;DHT22;4247;48.550;8.822;2023-02-15T11:42:47;5.30;99.90
8420;DHT22;4247;48.550;8.822;2023-02-15T11:45:22;5.30;99.90
8420;DHT22;4247;48.550;8.822;2023-02-15T11:47:53;5.60;99.90
8420;DHT22;4247;48.550;8.822;2023-02-15T11:50:25;5.60;99.90
8420;DHT22;4247;48.550;8.822;2023-02-15T11:52:56;5.70;99.90
8420;DHT22;4247;48.550;8.822;2023-02-15T11:55:27;5.80;99.90
8420;DHT22;4247;48.550;8.822;2023-02-15T11:58:04;5.80;99.90
8420;DHT22;4247;48.550;8.822;2023-02-15T12:00:36;5.80;99.90
8420;DHT22;4247;48.550;8.822;2023-02-15T12:03:17;5.90;99.90
8420;DHT22;4247;48.550;8.822;2023-02-15T12:05:51;5.90;99.90
8420;DHT22;4247;48.550;8.822;2023-02-15T12:08:21;6.10;99.90
8420;DHT22;4247;48.550;8.822;2023-02-15T12:10:57;6.10;99.90
8420;DHT22;4247;48.550;8.822;2023-02-15T12:13:25;6.20;99.90
8420;DHT22;4247;48.550;8.822;2023-02-15T12:15:55;6.30;99.90
8420;DHT22;4247;48.550;8.822;2023-02-15T12:18:34;6.30;99.90
8420;DHT22;4247;48.550;8.822;2023-02-15T12:21:06;6.50;99.90
8420;DHT22;4247;48.550;8.822;2023-02-15T12:23:35;6.40;99.90
8420;DHT22;4247;48.550;8.822;2023-02-15T12:26:09;6.50;99.90
8420;DHT22;4247;48.550;8.822;2023-02-15T12:28:41;6.60;99.90
8420;DHT22;4247;48.550;8.822;2023-02-15T12:31:20;6.80;99.90
8420;DHT22;4247;48.550;8.822;2023-02-15T12:33:51;6.80;99.90
8420;DHT22;4247;48.550;8.822;2023-02-15T12:36:22;6.90;99.90
8420;DHT22;4247;48.550;8.822;2023-02-15T12:39:20;7.10;99.90
8420;DHT22;4247;48.550;8.822;2023-02-15T12:41:59;7.20;99.90
8420;DHT22;4247;48.550;8.822;2023-02-15T12:44:28;7.10;99.90
8420;DHT22;4247;48.550;8.822;2023-02-15T12:47:00;7.10;99.90
8420;DHT22;4247;48.550;8.822;2023-02-15T12:49:31;7.20;99.90
8420;DHT22;4247;48.550;8.822;2023-02-15T12:52:04;7.20;99.90
8420;DHT22;4247;48.550;8.822;2023-02-15T12:54:38;7.30;99.90
8420;DHT22;4247;48.550;8.822;2023-02-15T12:57:22;7.30;99.90
8420;DHT22;4247;48.550;8.822;2023-02-15T12:59:52;7.50;99.90
8420;DHT22;4247;48.550;8.822;2023-02-15T13:02:29;7.60;99.90
8420;DHT22;4247;48.550;8.822;2023-02-15T13:05:05;7.50;99.90
8420;DHT22;4247;48.550;8.822;2023-02-15T13:07:37;7.50;99.90
8420;DHT22;4247;48.550;8.822;2023-02-15T13:10:11;7.50;99.90
8420;DHT22;4247;48.550;8.822;2023-02-15T13:12:47;7.60;99.90
8420;DHT22;4247;48.550;8.822;2023-02-15T13:15:28;7.60;99.90
8420;DHT22;4247;48.550;8.822;2023-02-15T13:18:00;7.70;99.90
8420;DHT22;4247;48.550;8.822;2023-02-15T13:20:32;7.70;99.90
8420;DHT22;4247;48.550;8.822;2023-02-15T13:23:17;7.80;99.90
8420;DHT22;4247;48.550;8.822;2023-02-15T13:25:47;7.80;99.90
8420;DHT22;4247;48.550;8.822;2023-02-15T13:28:18;7.80;99.90
8420;DHT22;4247;48.550;8.822;2023-02-15T13:30:47;7.90;99.90
8420;DHT22;4247;48.550;8.822;2023-02-15T13:33:19;7.90;99.90
8420;DHT22;4247;48.550;8.822;2023-02-15T13:35:57;8.00;99.90
8420;DHT22;4247;48.550;8.822;2023-02-15T13:38:50;8.10;99.90
8420;DHT22;4247;48.550;8.822;2023-02-15T13:41:27;8.20;99.90
8420;DHT22;4247;48.550;8.822;2023-02-15T13:44:03;8.30;99.90
8420;DHT22;4247;48.550;8.822;2023-02-15T13:46:51;8.40;99.90
8420;DHT22;4247;48.550;8.822;2023-02-15T13:49:32;8.40;99.90
8420;DHT22;4247;48.550;8.822;2023-02-15T13:52:11;8.60;99.90
8420;DHT22;4247;48.550;8.822;2023-02-15T13:55:16;8.70;99.90
8420;DHT22;4247;48.550;8.822;2023-02-15T13:58:10;8.80;99.90
8420;DHT22;4247;48.550;8.822;2023-02-15T14:00:44;8.90;99.90
8420;DHT22;4247;48.550;8.822;2023-02-15T14:06:29;9.00;99.90
8420;DHT22;4247;48.550;8.822;2023-02-15T14:09:08;9.10;99.90
8420;DHT22;4247;48.550;8.822;2023-02-15T14:11:47;9.00;99.90
8420;DHT22;4247;48.550;8.822;2023-02-15T14:14:51;9.10;99.90
8420;DHT22;4247;48.550;8.822;2023-02-15T14:17:46;9.00;99.90
8420;DHT22;4247;48.550;8.822;2023-02-15T14:20:19;9.00;99.90
8420;DHT22;4247;48.550;8.822;2023-02-15T14:22:53;8.90;99.90
8420;DHT22;4247;48.550;8.822;2023-02-15T14:25:28;8.90;99.90
8420;DHT22;4247;48.550;8.822;2023-02-15T14:28:06;8.90;99.90
8420;DHT22;4247;48.550;8.822;2023-02-15T14:30:37;8.90;99.90
8420;DHT22;4247;48.550;8.822;2023-02-15T14:33:07;9.00;99.90
8420;DHT22;4247;48.550;8.822;2023-02-15T14:35:37;9.00;99.90
8420;DHT22;4247;48.550;8.822;2023-02-15T14:38:12;9.00;99.90
8420;DHT22;4247;48.550;8.822;2023-02-15T14:40:51;9.00;99.90
8420;DHT22;4247;48.550;8.822;2023-02-15T14:43:38;9.00;99.90
8420;DHT22;4247;48.550;8.822;2023-02-15T14:46:11;9.00;99.90
8420;DHT22;4247;48.550;8.822;2023-02-15T14:48:46;9.00;99.90
8420;DHT22;4247;48.550;8.822;2023-02-15T14:57:33;9.10;99.90
8420;DHT22;4247;48.550;8.822;2023-02-15T15:02:48;9.20;99.30
8420;DHT22;4247;48.550;8.822;2023-02-15T15:05:19;9.30;99.90
8420;DHT22;4247;48.550;8.822;2023-02-15T15:07:48;9.30;99.90
8420;DHT22;4247;48.550;8.822;2023-02-15T15:10:35;9.40;99.90
8420;DHT22;4247;48.550;8.822;2023-02-15T15:16:27;9.40;99.90
8420;DHT22;4247;48.550;8.822;2023-02-15T15:18:57;9.40;99.90
8420;DHT22;4247;48.550;8.822;2023-02-15T15:21:54;9.40;99.90
8420;DHT22;4247;48.550;8.822;2023-02-15T15:24:48;9.40;99.90
8420;DHT22;4247;48.550;8.822;2023-02-15T15:27:42;9.40;99.90
8420;DHT22;4247;48.550;8.822;2023-02-15T15:37:09;9.40;99.90
8420;DHT22;4247;48.550;8.822;2023-02-15T15:43:25;9.30;99.90
8420;DHT22;4247;48.550;8.822;2023-02-15T15:46:36;9.10;99.90
8420;DHT22;4247;48.550;8.822;2023-02-15T15:49:12;9.00;99.90
8420;DHT22;4247;48.550;8.822;2023-02-15T15:51:42;9.00;99.90
8420;DHT22;4247;48.550;8.822;2023-02-15T15:54:19;8.90;99.90
8420;DHT22;4247;48.550;8.822;2023-02-15T15:56:51;8.80;99.90
8420;DHT22;4247;48.550;8.822;2023-02-15T16:00:01;8.80;99.90
8420;DHT22;4247;48.550;8.822;2023-02-15T16:02:54;8.70;99.90
8420;DHT22;4247;48.550;8.822;2023-02-15T16:05:35;8.60;99.90
8420;DHT22;4247;48.550;8.822;2023-02-15T16:08:02;8.50;99.90
8420;DHT22;4247;48.550;8.822;2023-02-15T16:10:30;8.50;99.90
8420;DHT22;4247;48.550;8.822;2023-02-15T16:13:00;8.40;99.90
8420;DHT22;4247;48.550;8.822;2023-02-15T16:15:35;8.30;99.90
8420;DHT22;4247;48.550;8.822;2023-02-15T16:18:03;8.30;99.90
8420;DHT22;4247;48.550;8.822;2023-02-15T16:20:34;8.20;99.90
8420;DHT22;4247;48.550;8.822;2023-02-15T16:23:12;8.10;99.90
8420;DHT22;4247;48.550;8.822;2023-02-15T16:25:54;8.00;99.90
8420;DHT22;4247;48.550;8.822;2023-02-15T16:28:24;7.90;99.90
8420;DHT22;4247;48.550;8.822;2023-02-15T16:31:04;7.80;99.90
8420;DHT22;4247;48.550;8.822;2023-02-15T16:33:35;7.70;99.90
8420;DHT22;4247;48.550;8.822;2023-02-15T16:36:05;7.60;99.90
8420;DHT22;4247;48.550;8.822;2023-02-15T16:39:09;7.50;99.90
8420;DHT22;4247;48.550;8.822;2023-02-15T16:41:37;7.40;99.90
8420;DHT22;4247;48.550;8.822;2023-02-15T16:44:07;7.30;99.90
8420;DHT22;4247;48.550;8.822;2023-02-15T16:46:41;7.30;99.90
8420;DHT22;4247;48.550;8.822;2023-02-15T16:49:16;7.20;99.90
8420;DHT22;4247;48.550;8.822;2023-02-15T16:51:44;7.10;99.90
8420;DHT22;4247;48.550;8.822;2023-02-15T16:54:21;7.00;99.90
8420;DHT22;4247;48.550;8.822;2023-02-15T16:56:49;6.90;99.90
8420;DHT22;4247;48.550;8.822;2023-02-15T16:59:27;6.90;99.90
8420;DHT22;4247;48.550;8.822;2023-02-15T17:01:55;6.80;99.90
8420;DHT22;4247;48.550;8.822;2023-02-15T17:04:29;6.80;99.90
8420;DHT22;4247;48.550;8.822;2023-02-15T17:07:06;6.70;99.90
8420;DHT22;4247;48.550;8.822;2023-02-15T17:09:36;6.60;99.90
8420;DHT22;4247;48.550;8.822;2023-02-15T17:12:43;6.50;99.90
8420;DHT22;4247;48.550;8.822;2023-02-15T17:15:25;6.40;99.90
8420;DHT22;4247;48.550;8.822;2023-02-15T17:17:52;6.40;99.90
8420;DHT22;4247;48.550;8.822;2023-02-15T17:20:23;6.40;99.90
8420;DHT22;4247;48.550;8.822;2023-02-15T17:22:53;6.50;99.90
8420;DHT22;4247;48.550;8.822;2023-02-15T17:25:25;6.60;99.90
8420;DHT22;4247;48.550;8.822;2023-02-15T17:27:55;6.60;99.90
8420;DHT22;4247;48.550;8.822;2023-02-15T17:30:29;6.70;99.90